Dirceu Arcoverde, Brazil
Current Conditions -  °F | °C
As of 5:00 PM on Saturday 25 Oct 2014 (Local Time) from SBPL Reporting Station
Few Clouds Few Clouds  
Wind Chill: 93°   Ceiling: Unl
Heat Index: 93°   Visibility: 6mi
Dew Point: 61°   Wind: 8mph
Humidity: 34%   Direction: 150°SSE
Pressure: 29.83"   Gusts: NA
Location:  9.34°S, 42.43°W
Report Text: SBPL 252000Z 15007KT 9999 FEW030 34/16 Q1010
Loading
Personal Weather Stations






























Interactive Weather Map
Tropical Storm Tracking
New forecast layout! Learn more

10-Day Weather Forecast

Advertisements
Track Severe Weather on mobile